Flight Track Log - Related Links

Times and Time Zones

All times are in EDT time to prevent confusion due to time zone crossing. See the EGF3681 flight status page for this flight to view local times or setup timezone preferences in your user account.


Time Position Orientation Groundspeed Altitude Reporting Facility
EDT Latitude Longitude Course Direction KTS MPH feet Rate Location/Type
Thu 12:16:30 AM 42.0167 -87.9667 95° East 186 214 2,400  Level Chicago TRACON
Thu 12:17:30 AM 42.0667 -87.9333 26° Northeast 220 253 4,200 2,035 Climbing Chicago TRACON
Thu 12:18:00 AM 41.9660 -87.5267 98° East  Level FlightAware Approximate
Thu 12:18:25 AM 42.1000 -87.8833 48° Northeast 234 269 6,300  Level Chicago TRACON
Thu 12:19:00 AM 41.9537 -87.4034 98° East  Level FlightAware Approximate
Thu 12:19:00 AM 42.1106 -87.8217 77° East 252 290 7,100  Level Chicago Center
Thu 12:20:00 AM 41.9439 -87.2797 95° East  Level FlightAware Approximate
Thu 12:20:01 AM 42.0933 -87.7203 103° East 275 316 8,900  Level Chicago Center
Thu 12:21:00 AM 41.9350 -87.1559 95° East  Level FlightAware Approximate
Thu 12:21:02 AM 42.0686 -87.6103 107° East 300 345 10,600  Level Chicago Center
Thu 12:22:03 AM 42.0431 -87.4967 107° East 316 364 12,200 1,475 Climbing Chicago Center
Thu 12:23:04 AM 42.0161 -87.3781 107° East 328 377 13,600 1,033 Climbing Chicago Center
Thu 12:24:05 AM 41.9878 -87.2503 107° East 351 404 14,300 683 Climbing Chicago Center
Thu 12:25:07 AM 41.9572 -87.1147 107° East 374 430 15,000 780 Climbing Chicago Center
Thu 12:26:08 AM 41.9439 -86.9700 97° East 389 448 15,900 836 Climbing Chicago Center
Thu 12:27:09 AM 41.9483 -86.8211 88° East 397 457 16,700 639 Climbing Chicago Center
Thu 12:28:10 AM 41.9508 -86.6547 89° East 406 467 17,200 793 Climbing Chicago Center
Thu 12:29:10 AM 41.9531 -86.5000 89° East 414 476 18,300 1,131 Climbing Chicago Center
Thu 12:30:12 AM 41.9542 -86.3467 89° East 411 473 19,500 1,659 Climbing Chicago Center
Thu 12:31:13 AM 41.9519 -86.1992 91° East 396 456 21,700 1,721 Climbing Chicago Center
Thu 12:32:14 AM 41.9114 -86.0678 112° Southeast 382 440 23,000 639 Climbing Chicago Center
Thu 12:33:15 AM 41.8253 -85.9733 141° Southeast 405 466 23,000  Level Chicago Center
Thu 12:34:15 AM 41.7250 -85.8839 146° Southeast 431 496 23,000  Level Chicago Center
Thu 12:35:16 AM 41.6228 -85.7875 145° Southeast 450 518 23,000 -246 Level Chicago Center
Thu 12:36:17 AM 41.4967 -85.6700 145° Southeast 467 537 22,500 -492 Descending Chicago Center
Thu 12:37:18 AM 41.3925 -85.5717 145° Southeast 468 539 22,000 -246 Descending Chicago Center
Thu 12:38:19 AM 41.2889 -85.4728 144° Southeast 465 535 22,000  Level Chicago Center
Thu 12:40:04 AM 41.1242 -85.2808 139° Southeast 467 537 22,000 -255 Level Indianapolis Center
Thu 12:41:04 AM 41.0383 -85.1508 131° Southeast 468 539 21,300 -942 Descending Indianapolis Center
Thu 12:42:05 AM 40.9531 -85.0247 132° Southeast 462 532 20,100 -1,082 Descending Indianapolis Center
Thu 12:43:06 AM 40.8689 -84.8981 131° Southeast 445 512 19,100 -1,033 Descending Indianapolis Center
Thu 12:44:07 AM 40.7867 -84.7756 132° Southeast 440 506 18,000 -992 Descending Indianapolis Center
Thu 12:45:07 AM 40.7056 -84.6533 131° Southeast 440 506 17,100 -942 Descending Indianapolis Center
Thu 12:46:08 AM 40.6256 -84.5367 132° Southeast 431 496 16,100 -1,000 Descending Indianapolis Center
Thu 12:46:49 AM 40.5711 -84.4558 132° Southeast 408 470 15,400 -1,118 Descending Indianapolis Center
Thu 12:47:50 AM 40.4961 -84.3467 132° Southeast 396 456 14,200 -1,148 Descending Indianapolis Center
Thu 12:48:44 AM 40.4092 -84.2800 150° Southeast 404 465 13,200 -1,388 Descending Indianapolis Center
Thu 12:49:51 AM 40.2936 -84.2042 153° Southeast 401 461 11,400 -1,465 Descending Indianapolis Center
Thu 12:50:51 AM 40.2097 -84.1494 154° Southeast 317 365 10,100 -1,736 Descending Indianapolis Center
Thu 12:51:52 AM 40.1381 -84.1017 153° Southeast 272 313 7,900 -2,361 Descending Indianapolis Center
Thu 12:52:53 AM 40.0703 -84.0572 153° Southeast 269 310 5,300 -2,132 Descending Indianapolis Center
Thu 12:53:53 AM 40.0083 -84.0464 172° South 228 262 3,600 -1,700 Descending Indianapolis Center

Login

Don't have an account? Register now (free) for customized features, flight alerts, and more!